createdAt,value
2019-05-12T00:00:40.592Z,99.90
2019-05-12T00:03:10.188Z,99.90
2019-05-12T00:05:39.720Z,99.90
2019-05-12T00:08:09.606Z,99.90
2019-05-12T00:10:39.173Z,99.90
2019-05-12T00:13:08.753Z,99.90
2019-05-12T00:15:38.591Z,99.90
2019-05-12T00:18:09.110Z,99.90
2019-05-12T00:20:39.333Z,99.90
2019-05-12T00:23:23.300Z,99.90
2019-05-12T00:25:40.061Z,99.90
2019-05-12T00:28:09.568Z,99.90
2019-05-12T00:30:41.089Z,99.90
2019-05-12T00:33:10.584Z,99.90
2019-05-12T00:35:40.131Z,99.90
2019-05-12T00:38:10.849Z,99.90
2019-05-12T00:40:40.574Z,99.90
2019-05-12T00:43:11.093Z,99.90
2019-05-12T00:45:40.646Z,99.90
2019-05-12T00:48:10.160Z,99.90
2019-05-12T00:50:39.748Z,99.90
2019-05-12T00:53:09.741Z,99.90
2019-05-12T00:55:39.382Z,99.90
2019-05-12T00:58:09.112Z,99.90
2019-05-12T01:00:40.878Z,99.90
2019-05-12T01:03:10.938Z,99.90
2019-05-12T01:05:42.431Z,99.90
2019-05-12T01:08:11.941Z,99.90
2019-05-12T01:10:41.434Z,99.90
2019-05-12T01:13:11.932Z,99.90
2019-05-12T01:15:41.540Z,99.90
2019-05-12T01:18:11.401Z,99.90
2019-05-12T01:20:40.970Z,99.90
2019-05-12T01:23:10.629Z,99.90
2019-05-12T01:25:40.113Z,99.90
2019-05-12T01:28:09.629Z,99.90
2019-05-12T01:30:39.565Z,99.90
2019-05-12T01:33:09.261Z,99.90
2019-05-12T01:35:39.325Z,99.90
2019-05-12T01:38:08.965Z,99.90
2019-05-12T01:40:39.612Z,99.90
2019-05-12T01:43:09.435Z,99.90
2019-05-12T01:45:38.971Z,99.90
2019-05-12T01:48:09.294Z,99.90
2019-05-12T01:50:39.367Z,99.90
2019-05-12T01:53:09.170Z,99.90
2019-05-12T01:55:39.156Z,99.90
2019-05-12T01:58:09.072Z,99.90
2019-05-12T02:00:39.393Z,99.90
2019-05-12T02:03:09.615Z,99.90
2019-05-12T02:05:40.923Z,99.90
2019-05-12T02:08:18.509Z,99.90
2019-05-12T02:10:49.897Z,99.90
2019-05-12T02:13:19.405Z,99.90
2019-05-12T02:15:49.217Z,99.90
2019-05-12T02:18:18.697Z,99.90
2019-05-12T02:20:48.344Z,99.90
2019-05-12T02:23:18.053Z,99.90
2019-05-12T02:25:48.365Z,99.90
2019-05-12T02:28:18.137Z,99.90
2019-05-12T02:30:50.293Z,99.90
2019-05-12T02:33:20.497Z,99.90
2019-05-12T02:35:50.035Z,99.90
2019-05-12T02:38:19.577Z,99.90
2019-05-12T02:40:49.098Z,99.90
2019-05-12T02:43:18.639Z,99.90
2019-05-12T02:45:48.230Z,99.90
2019-05-12T02:48:17.800Z,99.90
2019-05-12T02:50:48.448Z,99.90
2019-05-12T02:53:18.020Z,99.90
2019-05-12T02:55:48.531Z,99.90
2019-05-12T02:58:19.200Z,99.90
2019-05-12T03:00:48.827Z,99.90
2019-05-12T03:03:24.907Z,99.90
2019-05-12T03:05:55.589Z,99.90
2019-05-12T03:08:26.462Z,99.90
2019-05-12T03:10:56.827Z,99.90
2019-05-12T03:13:28.202Z,99.90
2019-05-12T03:15:57.805Z,99.90
2019-05-12T03:18:27.557Z,99.90
2019-05-12T03:20:57.097Z,99.90
2019-05-12T03:23:26.680Z,99.90
2019-05-12T03:25:56.332Z,99.90
2019-05-12T03:28:26.086Z,99.90
2019-05-12T03:30:57.703Z,99.90
2019-05-12T03:33:34.353Z,99.90
2019-05-12T03:36:00.608Z,99.90
2019-05-12T03:38:29.526Z,99.90
2019-05-12T03:40:59.032Z,99.90
2019-05-12T03:43:28.577Z,99.90
2019-05-12T03:45:58.158Z,99.90
2019-05-12T03:48:27.641Z,99.90
2019-05-12T03:50:57.213Z,99.90
2019-05-12T03:53:26.735Z,99.90
2019-05-12T03:55:56.218Z,99.90
2019-05-12T03:58:25.857Z,99.90
2019-05-12T04:00:55.542Z,99.90
2019-05-12T04:03:25.192Z,99.90
2019-05-12T04:05:55.512Z,99.90
2019-05-12T04:08:25.164Z,99.90
2019-05-12T04:10:54.950Z,99.90
2019-05-12T04:13:26.449Z,99.90
2019-05-12T04:15:56.040Z,99.90
2019-05-12T04:18:25.580Z,99.90
2019-05-12T04:20:55.151Z,99.90
2019-05-12T04:23:25.032Z,99.90
2019-05-12T04:26:07.362Z,99.90
2019-05-12T04:28:26.266Z,99.90
2019-05-12T04:30:55.774Z,99.90
2019-05-12T04:33:25.870Z,99.90
2019-05-12T04:35:55.660Z,99.90
2019-05-12T04:38:25.244Z,99.90
2019-05-12T04:40:55.689Z,99.90
2019-05-12T04:43:25.640Z,99.90
2019-05-12T04:45:55.325Z,99.90
2019-05-12T04:48:25.738Z,99.90
2019-05-12T04:50:55.621Z,99.90
2019-05-12T04:53:25.564Z,99.90
2019-05-12T04:56:07.382Z,99.90
2019-05-12T04:58:26.418Z,99.90
2019-05-12T05:00:56.013Z,99.90
2019-05-12T05:03:25.584Z,99.90
2019-05-12T05:05:55.203Z,99.90
2019-05-12T05:08:24.793Z,99.90
2019-05-12T05:10:54.872Z,99.90
2019-05-12T05:13:25.045Z,99.90
2019-05-12T05:15:55.044Z,99.90
2019-05-12T05:18:25.142Z,99.90
2019-05-12T05:20:54.649Z,99.90
2019-05-12T05:23:24.381Z,99.90
2019-05-12T05:25:54.216Z,99.90
2019-05-12T05:28:24.115Z,99.90
2019-05-12T05:30:53.784Z,99.90
2019-05-12T05:33:25.364Z,99.90
2019-05-12T05:35:54.893Z,99.90
2019-05-12T05:38:24.393Z,99.90
2019-05-12T05:40:54.192Z,99.90
2019-05-12T05:43:24.295Z,99.90
2019-05-12T05:46:02.084Z,99.90
2019-05-12T05:48:25.157Z,99.90
2019-05-12T05:50:54.698Z,99.90
2019-05-12T05:53:24.377Z,99.90
2019-05-12T05:55:58.654Z,99.90
2019-05-12T05:58:26.170Z,99.90
2019-05-12T06:01:02.970Z,99.90
2019-05-12T06:03:28.011Z,99.90
2019-05-12T06:06:01.456Z,99.90
2019-05-12T06:08:28.945Z,99.90
2019-05-12T06:10:58.549Z,99.90
2019-05-12T06:13:31.940Z,99.90
2019-05-12T06:15:59.652Z,99.90
2019-05-12T06:18:29.242Z,99.90
2019-05-12T06:20:58.805Z,99.90
2019-05-12T06:23:28.942Z,99.90
2019-05-12T06:25:59.542Z,99.90
2019-05-12T06:28:31.039Z,99.90
2019-05-12T06:31:00.269Z,99.90
2019-05-12T06:33:31.983Z,99.90
2019-05-12T06:36:03.213Z,99.90
2019-05-12T06:38:37.215Z,99.90
2019-05-12T06:41:03.722Z,99.90
2019-05-12T06:43:35.287Z,99.90
2019-05-12T06:46:05.124Z,99.90
2019-05-12T06:48:34.650Z,99.90
2019-05-12T06:51:04.246Z,99.90
2019-05-12T06:53:33.788Z,99.90
2019-05-12T06:56:04.464Z,99.90
2019-05-12T06:58:34.529Z,99.90
2019-05-12T07:01:10.116Z,99.90
2019-05-12T07:03:37.321Z,99.90
2019-05-12T07:06:09.218Z,99.90
2019-05-12T07:08:38.491Z,99.90
2019-05-12T07:11:08.229Z,99.90
2019-05-12T07:13:37.852Z,99.90
2019-05-12T07:16:16.722Z,99.90
2019-05-12T07:18:46.326Z,99.90
2019-05-12T07:21:20.274Z,99.90
2019-05-12T07:23:47.112Z,99.90
2019-05-12T07:26:19.569Z,99.90
2019-05-12T07:28:49.277Z,99.90
2019-05-12T07:31:18.803Z,99.90
2019-05-12T07:33:48.429Z,99.90
2019-05-12T07:36:19.471Z,99.90
2019-05-12T07:38:49.792Z,99.90
2019-05-12T07:41:23.696Z,99.90
2019-05-12T07:43:59.552Z,99.90
2019-05-12T07:46:28.403Z,99.90
2019-05-12T07:48:58.204Z,99.90
2019-05-12T07:51:30.396Z,99.90
2019-05-12T07:53:59.441Z,99.90
2019-05-12T07:56:32.946Z,99.90
2019-05-12T07:59:00.297Z,99.90
2019-05-12T08:01:29.851Z,99.90
2019-05-12T08:04:01.154Z,99.90
2019-05-12T08:06:34.719Z,99.90
2019-05-12T08:09:04.052Z,99.90
2019-05-12T08:11:37.309Z,99.90
2019-05-12T08:14:05.103Z,99.90
2019-05-12T08:16:36.890Z,99.90
2019-05-12T08:19:08.442Z,99.90
2019-05-12T08:21:43.560Z,99.90
2019-05-12T08:24:08.298Z,99.90
2019-05-12T08:26:37.809Z,99.90
2019-05-12T08:29:13.803Z,99.90
2019-05-12T08:31:40.695Z,99.90
2019-05-12T08:34:09.899Z,99.90
2019-05-12T08:36:44.297Z,93.30
2019-05-12T08:39:11.773Z,94.40
2019-05-12T08:41:44.248Z,94.70
2019-05-12T08:44:13.605Z,96.70
2019-05-12T08:46:51.925Z,99.60
2019-05-12T08:49:14.681Z,96.90
2019-05-12T08:51:44.385Z,98.60
2019-05-12T08:54:15.286Z,95.50
2019-05-12T08:56:44.797Z,95.20
2019-05-12T08:59:15.525Z,95.60
2019-05-12T09:01:45.619Z,98.30
2019-05-12T09:04:18.282Z,98.40
2019-05-12T09:06:50.191Z,95.70
2019-05-12T09:09:19.240Z,94.70
2019-05-12T09:11:48.776Z,92.70
2019-05-12T09:14:19.332Z,92.60
2019-05-12T09:16:55.928Z,92.90
2019-05-12T09:19:24.093Z,94.50
2019-05-12T09:21:54.113Z,95.40
2019-05-12T09:24:27.311Z,95.70
2019-05-12T09:26:59.108Z,93.90
2019-05-12T09:29:25.440Z,92.50
2019-05-12T09:31:59.293Z,92.10
2019-05-12T09:34:26.172Z,92.40
2019-05-12T09:36:59.742Z,90.80
2019-05-12T09:39:27.123Z,90.60
2019-05-12T09:41:57.200Z,91.90
2019-05-12T09:44:30.445Z,89.70
2019-05-12T09:46:57.941Z,90.40
2019-05-12T09:49:31.332Z,92.80
2019-05-12T09:51:58.703Z,90.40
2019-05-12T09:54:35.603Z,90.50
2019-05-12T09:56:59.903Z,91.30
2019-05-12T09:59:29.660Z,90.60
2019-05-12T10:01:59.696Z,90.40
2019-05-12T10:04:29.367Z,86.40
2019-05-12T10:06:58.868Z,85.30
2019-05-12T10:09:28.471Z,81.40
2019-05-12T10:12:00.567Z,84.70
2019-05-12T10:14:29.155Z,79.20
2019-05-12T10:16:58.689Z,76.30
2019-05-12T10:19:28.213Z,76.10
2019-05-12T10:21:59.469Z,79.40
2019-05-12T10:24:34.443Z,78.10
2019-05-12T10:27:00.169Z,78.80
2019-05-12T10:29:30.971Z,75.70
2019-05-12T10:32:00.990Z,77.70
2019-05-12T10:34:38.128Z,79.30
2019-05-12T10:37:03.769Z,78.90
2019-05-12T10:39:33.512Z,76.60
2019-05-12T10:42:03.221Z,80.40
2019-05-12T10:44:37.602Z,73.40
2019-05-12T10:47:05.728Z,74.40
2019-05-12T10:49:35.265Z,73.80
2019-05-12T10:52:05.490Z,74.50
2019-05-12T10:54:36.024Z,71.10
2019-05-12T10:57:05.645Z,69.90
2019-05-12T10:59:38.718Z,71.70
2019-05-12T11:02:06.550Z,67.10
2019-05-12T11:04:40.957Z,71.10
2019-05-12T11:07:07.574Z,68.40
2019-05-12T11:09:37.163Z,71.80
2019-05-12T11:12:06.885Z,71.90
2019-05-12T11:14:36.405Z,77.20
2019-05-12T11:17:09.359Z,78.20
2019-05-12T11:19:40.725Z,72.60
2019-05-12T11:22:09.986Z,68.10
2019-05-12T11:24:39.479Z,70.60
2019-05-12T11:27:09.034Z,74.00
2019-05-12T11:29:46.035Z,70.90
2019-05-12T11:32:09.893Z,69.90
2019-05-12T11:34:39.410Z,71.20
2019-05-12T11:37:08.997Z,66.80
2019-05-12T11:39:44.510Z,66.70
2019-05-12T11:42:10.619Z,66.70
2019-05-12T11:44:40.242Z,71.60
2019-05-12T11:47:16.938Z,67.90
2019-05-12T11:49:41.135Z,69.10
2019-05-12T11:52:15.963Z,66.20
2019-05-12T11:54:49.077Z,66.70
2019-05-12T11:57:13.461Z,67.10
2019-05-12T11:59:51.620Z,74.40
2019-05-12T12:02:14.920Z,74.40
2019-05-12T12:04:47.782Z,76.30
2019-05-12T12:07:17.674Z,68.90
2019-05-12T12:09:49.330Z,67.20
2019-05-12T12:12:18.429Z,66.20
2019-05-12T12:14:50.353Z,66.10
2019-05-12T12:17:22.895Z,69.70
2019-05-12T12:19:50.733Z,70.80
2019-05-12T12:22:25.433Z,70.60
2019-05-12T12:24:51.466Z,71.90
2019-05-12T12:27:20.981Z,71.90
2019-05-12T12:29:50.518Z,73.40
2019-05-12T12:32:20.515Z,74.00
2019-05-12T12:34:50.273Z,74.40
2019-05-12T12:37:24.124Z,75.70
2019-05-12T12:39:53.482Z,74.90
2019-05-12T12:42:24.177Z,76.20
2019-05-12T12:44:58.673Z,78.00
2019-05-12T12:47:25.121Z,79.20
2019-05-12T12:49:54.697Z,82.80
2019-05-12T12:52:24.450Z,79.00
2019-05-12T12:54:54.360Z,81.10
2019-05-12T12:57:23.948Z,82.30
2019-05-12T12:59:53.515Z,80.80
2019-05-12T13:02:24.756Z,83.50
2019-05-12T13:04:54.437Z,85.20
2019-05-12T13:07:24.204Z,83.90
2019-05-12T13:09:54.940Z,82.90
2019-05-12T13:12:25.128Z,87.20
2019-05-12T13:14:54.681Z,90.00
2019-05-12T13:17:32.647Z,85.10
2019-05-12T13:19:58.673Z,87.30
2019-05-12T13:22:29.565Z,83.80
2019-05-12T13:25:04.568Z,78.90
2019-05-12T13:27:30.195Z,78.50
2019-05-12T13:30:01.908Z,80.90
2019-05-12T13:32:32.132Z,81.40
2019-05-12T13:35:04.189Z,81.20
2019-05-12T13:37:33.852Z,78.60
2019-05-12T13:40:05.434Z,78.00
2019-05-12T13:42:35.869Z,80.10
2019-05-12T13:45:06.836Z,75.40
2019-05-12T13:47:39.930Z,73.00
2019-05-12T13:50:15.516Z,76.20
2019-05-12T13:52:38.940Z,72.50
2019-05-12T13:55:08.610Z,73.80
2019-05-12T13:57:38.101Z,76.00
2019-05-12T14:00:10.899Z,73.30
2019-05-12T14:02:39.897Z,70.60
2019-05-12T14:05:14.030Z,76.50
2019-05-12T14:07:40.744Z,70.90
2019-05-12T14:10:10.712Z,71.90
2019-05-12T14:12:40.278Z,71.80
2019-05-12T14:15:10.054Z,70.60
2019-05-12T14:17:40.603Z,72.50
2019-05-12T14:20:15.923Z,76.10
2019-05-12T14:22:44.572Z,74.10
2019-05-12T14:25:15.270Z,69.80
2019-05-12T14:27:45.053Z,70.90
2019-05-12T14:30:15.464Z,69.20
2019-05-12T14:32:49.197Z,69.30
2019-05-12T14:35:17.700Z,65.90
2019-05-12T14:37:47.571Z,63.90
2019-05-12T14:40:21.179Z,65.60
2019-05-12T14:42:48.422Z,64.80
2019-05-12T14:45:19.401Z,64.90
2019-05-12T14:47:49.165Z,66.80
2019-05-12T14:50:18.698Z,70.20
2019-05-12T14:52:50.151Z,72.60
2019-05-12T14:55:20.033Z,73.40
2019-05-12T14:57:49.572Z,76.30
2019-05-12T15:00:21.923Z,75.20
2019-05-12T15:02:51.314Z,74.90
2019-05-12T15:05:20.919Z,77.50
2019-05-12T15:07:53.466Z,76.70
2019-05-12T15:10:23.445Z,76.90
2019-05-12T15:12:54.360Z,80.90
2019-05-12T15:15:24.329Z,81.20
2019-05-12T15:18:02.581Z,78.30
2019-05-12T15:20:25.229Z,81.20
2019-05-12T15:22:55.338Z,81.40
2019-05-12T15:25:29.453Z,79.40
2019-05-12T15:27:56.411Z,79.00
2019-05-12T15:30:26.861Z,77.50
2019-05-12T15:32:56.581Z,77.70
2019-05-12T15:35:26.085Z,78.40
2019-05-12T15:37:55.617Z,76.30
2019-05-12T15:40:25.288Z,79.20
2019-05-12T15:42:55.149Z,78.10
2019-05-12T15:45:26.153Z,74.00
2019-05-12T15:47:55.694Z,75.10
2019-05-12T15:50:26.067Z,76.10
2019-05-12T15:52:55.858Z,76.30
2019-05-12T15:55:32.692Z,76.60
2019-05-12T15:57:56.728Z,77.90
2019-05-12T16:00:26.494Z,76.70
2019-05-12T16:02:56.025Z,79.30
2019-05-12T16:05:30.808Z,79.50
2019-05-12T16:07:56.774Z,81.50
2019-05-12T16:10:26.498Z,81.60
2019-05-12T16:12:56.053Z,79.70
2019-05-12T16:15:25.912Z,82.10
2019-05-12T16:17:59.399Z,82.50
2019-05-12T16:20:26.802Z,81.10
2019-05-12T16:22:56.504Z,79.20
2019-05-12T16:25:29.512Z,81.00
2019-05-12T16:27:57.375Z,78.80
2019-05-12T16:30:27.238Z,82.30
2019-05-12T16:32:56.956Z,83.00
2019-05-12T16:35:31.434Z,80.40
2019-05-12T16:37:57.810Z,83.10
2019-05-12T16:40:27.331Z,83.30
2019-05-12T16:42:59.905Z,83.20
2019-05-12T16:45:28.171Z,84.10
2019-05-12T16:47:59.242Z,85.30
2019-05-12T16:50:29.485Z,85.70
2019-05-12T16:52:59.202Z,88.30
2019-05-12T16:55:28.808Z,86.70
2019-05-12T16:57:58.360Z,88.40
2019-05-12T17:00:30.858Z,88.80
2019-05-12T17:03:00.343Z,88.80
2019-05-12T17:05:29.893Z,89.90
2019-05-12T17:07:59.451Z,89.30
2019-05-12T17:10:29.062Z,89.90
2019-05-12T17:12:58.587Z,90.10
2019-05-12T17:15:28.102Z,90.20
2019-05-12T17:18:01.529Z,90.20
2019-05-12T17:20:29.124Z,90.90
2019-05-12T17:23:00.240Z,90.50
2019-05-12T17:25:29.923Z,90.00
2019-05-12T17:28:03.784Z,90.90
2019-05-12T17:30:31.085Z,91.00
2019-05-12T17:33:02.599Z,90.60
2019-05-12T17:35:34.841Z,91.10
2019-05-12T17:38:04.809Z,90.90
2019-05-12T17:40:34.328Z,90.50
2019-05-12T17:43:11.843Z,89.50
2019-05-12T17:45:35.634Z,89.30
2019-05-12T17:48:07.545Z,88.20
2019-05-12T17:50:40.369Z,88.80
2019-05-12T17:53:07.652Z,86.90
2019-05-12T17:55:42.582Z,90.00
2019-05-12T17:58:08.435Z,87.20
2019-05-12T18:00:41.249Z,87.70
2019-05-12T18:03:20.591Z,85.30
2019-05-12T18:05:42.512Z,86.50
2019-05-12T18:08:14.005Z,86.00
2019-05-12T18:10:43.621Z,83.90
2019-05-12T18:13:17.164Z,83.10
2019-05-12T18:15:44.940Z,84.20
2019-05-12T18:18:17.424Z,84.90
2019-05-12T18:20:45.949Z,85.00
2019-05-12T18:23:19.949Z,85.40
2019-05-12T18:25:46.694Z,87.20
2019-05-12T18:28:16.268Z,87.00
2019-05-12T18:30:46.387Z,87.40
2019-05-12T18:33:29.598Z,87.40
2019-05-12T18:35:47.276Z,88.20
2019-05-12T18:38:22.769Z,88.80
2019-05-12T18:40:48.225Z,87.80
2019-05-12T18:43:17.881Z,88.40
2019-05-12T18:45:48.965Z,88.40
2019-05-12T18:48:22.249Z,88.80
2019-05-12T18:50:50.164Z,90.40
2019-05-12T18:53:27.477Z,90.60
2019-05-12T18:55:53.973Z,89.70
2019-05-12T18:58:30.831Z,90.20
2019-05-12T19:00:54.523Z,90.00
2019-05-12T19:03:25.547Z,90.80
2019-05-12T19:05:57.732Z,90.70
2019-05-12T19:08:26.677Z,91.50
2019-05-12T19:10:57.224Z,91.20
2019-05-12T19:13:26.875Z,91.50
2019-05-12T19:16:02.275Z,92.40
2019-05-12T19:18:32.434Z,92.40
2019-05-12T19:20:59.149Z,92.80
2019-05-12T19:23:35.269Z,94.00
2019-05-12T19:26:00.001Z,93.90
2019-05-12T19:28:29.888Z,94.20
2019-05-12T19:31:00.910Z,94.70
2019-05-12T19:33:30.805Z,95.20
2019-05-12T19:36:04.775Z,96.20
2019-05-12T19:38:31.639Z,97.90
2019-05-12T19:41:01.263Z,98.30
2019-05-12T19:43:30.811Z,99.50
2019-05-12T19:46:03.467Z,99.90
2019-05-12T19:48:40.141Z,99.90
2019-05-12T19:51:19.598Z,99.90
2019-05-12T19:53:33.998Z,99.90
2019-05-12T19:56:05.045Z,99.90
2019-05-12T19:58:34.772Z,99.90
2019-05-12T20:01:04.349Z,99.90
2019-05-12T20:03:34.288Z,99.90
2019-05-12T20:06:03.808Z,99.90
2019-05-12T20:08:33.360Z,99.90
2019-05-12T20:11:03.959Z,99.90
2019-05-12T20:13:36.060Z,99.90
2019-05-12T20:16:04.771Z,99.90
2019-05-12T20:18:42.936Z,99.90
2019-05-12T20:21:05.648Z,99.90
2019-05-12T20:23:35.564Z,99.90
2019-05-12T20:26:05.090Z,99.90
2019-05-12T20:28:34.763Z,99.90
2019-05-12T20:31:06.079Z,99.90
2019-05-12T20:33:35.940Z,99.90
2019-05-12T20:36:05.580Z,99.90
2019-05-12T20:38:36.951Z,99.90
2019-05-12T20:41:10.984Z,99.90
2019-05-12T20:43:41.264Z,99.90
2019-05-12T20:46:12.979Z,99.90
2019-05-12T20:48:40.198Z,99.90
2019-05-12T20:51:15.537Z,99.90
2019-05-12T20:53:40.972Z,99.90
2019-05-12T20:56:12.197Z,99.90
2019-05-12T20:58:44.279Z,99.90
2019-05-12T21:01:13.919Z,99.90
2019-05-12T21:03:46.388Z,99.90
2019-05-12T21:06:18.331Z,99.90
2019-05-12T21:08:53.611Z,99.90
2019-05-12T21:11:18.431Z,99.90
2019-05-12T21:13:47.947Z,99.90
2019-05-12T21:16:25.197Z,99.90
2019-05-12T21:18:55.892Z,99.90
2019-05-12T21:21:27.625Z,99.90
2019-05-12T21:23:53.714Z,99.90
2019-05-12T21:26:22.698Z,99.90
2019-05-12T21:28:53.889Z,99.90
2019-05-12T21:31:28.970Z,99.90
2019-05-12T21:33:54.720Z,99.90
2019-05-12T21:36:26.864Z,99.90
2019-05-12T21:38:59.409Z,99.90
2019-05-12T21:41:26.710Z,99.90
2019-05-12T21:44:00.069Z,99.90
2019-05-12T21:46:27.903Z,99.90
2019-05-12T21:49:06.740Z,99.90
2019-05-12T21:51:28.672Z,99.90
2019-05-12T21:53:58.174Z,99.90
2019-05-12T21:56:27.746Z,99.90
2019-05-12T21:58:58.405Z,99.90
2019-05-12T22:01:28.047Z,99.90
2019-05-12T22:04:02.060Z,99.90
2019-05-12T22:06:28.908Z,99.90
2019-05-12T22:09:01.593Z,99.90
2019-05-12T22:11:34.393Z,99.90
2019-05-12T22:14:04.605Z,99.90
2019-05-12T22:16:43.266Z,99.90
2019-05-12T22:19:07.489Z,99.90
2019-05-12T22:21:44.464Z,99.90
2019-05-12T22:24:08.629Z,99.90
2019-05-12T22:26:40.403Z,99.90
2019-05-12T22:29:09.411Z,99.90
2019-05-12T22:31:45.018Z,99.90
2019-05-12T22:34:10.492Z,99.90
2019-05-12T22:36:45.355Z,99.90
2019-05-12T22:39:11.536Z,99.90
2019-05-12T22:41:41.596Z,99.90
2019-05-12T22:44:18.367Z,99.90
2019-05-12T22:46:43.609Z,99.90
2019-05-12T22:49:16.843Z,99.90
2019-05-12T22:51:46.614Z,99.90
2019-05-12T22:54:16.296Z,99.90
2019-05-12T22:56:49.563Z,99.90
2019-05-12T22:59:17.017Z,99.90
2019-05-12T23:01:46.963Z,99.90
2019-05-12T23:04:16.506Z,99.90
2019-05-12T23:06:46.794Z,99.90
2019-05-12T23:09:19.479Z,99.90
2019-05-12T23:11:47.904Z,99.90
2019-05-12T23:14:21.033Z,99.90
2019-05-12T23:16:48.690Z,99.90
2019-05-12T23:19:18.320Z,99.90
2019-05-12T23:21:49.357Z,99.90
2019-05-12T23:24:19.108Z,99.90
2019-05-12T23:26:48.589Z,99.90
2019-05-12T23:29:20.399Z,99.90
2019-05-12T23:31:50.274Z,99.90
2019-05-12T23:34:20.128Z,99.90
2019-05-12T23:36:50.506Z,99.90
2019-05-12T23:39:20.881Z,99.90
2019-05-12T23:41:50.480Z,99.90
2019-05-12T23:44:20.097Z,99.90
2019-05-12T23:46:49.733Z,99.90
2019-05-12T23:49:19.230Z,99.90
2019-05-12T23:51:48.735Z,99.90
2019-05-12T23:54:18.373Z,99.90
2019-05-12T23:56:47.933Z,99.90
2019-05-12T23:59:17.469Z,99.90
